World of Logs combat log analyzer allows gamers to save, share and analyze their raiding experiences conveniently and thoroughly in the Blizzard MMO World of Warcraft. If you're new here, make sure you check out the tour for a 1 minute introduction. If you have any questions, we're happy to answer them on the forums.

DPS HPS
Odyn
Helya
Guarm
Reports for Twilight Ascendant Council - statistics
# Date Time Damage DPS Guild Realm
1001 07 Jul 2012 02:24 24.19M 167354.5 Winchester EU-Kazzak
1002 18 May 2012 02:24 24.22M 167571.1 Delusional US-Destromath
1003 08 Aug 2012 02:24 23.87M 165129.2 Pwnanza EU-Kazzak
1004 28 Feb 2012 02:24 24.64M 170433.1 Dirty Heroes EU-Vashj
1005 12 Apr 2012 02:24 24.15M 166981.6 Marauders EU-Daggerspine
1006 28 Feb 2012 02:24 24.27M 167826.8 Валеры_vs_Боссы EU-Азурегос
1007 17 Jul 2012 02:24 24.28M 167904.1 emlogs US-Sen'jin
1008 17 Jul 2012 02:24 24.28M 167904.1 Big Crits US-Sen'jin
1009 20 Aug 2012 02:24 24.18M 167134.6 The Bro Code EU-Mannoroth
1010 14 Mar 2012 02:24 24.37M 168451.7 Kinetic US-Frostmane
1011 24 Apr 2012 02:24 24.38M 168265.7 Death n Decay EU-Gilneas
1012 23 Aug 2012 02:24 24.36M 168032.5 The Church US-Darkspear
1013 25 Feb 2012 02:24 24.56M 169348.5 Die Kuschler EU-Perenolde
1014 17 Jun 2012 02:25 24.41M 168331.4 ШПлоги EU-Гордунни
1015 02 Aug 2012 02:25 24.45M 168568.9 Легендарные EU-Гром
1016 27 Mar 2012 02:25 24.40M 168252.9 With Honor EU-Jaedenar
1017 19 Apr 2012 02:25 24.14M 166464.1 Circle of Justice EU-Defias Brotherhood
1018 02 Mar 2012 02:25 24.44M 168446.2 iddqd EU-Turalyon
1019 09 Nov 2011 02:25 24.29M 167376.5 CAREBEARS DONT CARE US-Tichondrius
1020 30 Apr 2012 02:25 24.28M 167317.6 Афины EU-Свежеватель Душ
1021 01 Aug 2012 02:25 24.83M 171026.1 Nu Tir's Night Watch US-Silver Hand
1022 20 Mar 2012 02:25 25.08M 172709.5 Apokalypse EU-Kil'jaeden
1023 11 Mar 2012 02:25 24.98M 171978.7 Eternal Reign US-Lightbringer
1024 26 Oct 2011 02:25 24.23M 166769.3 Nothing is Eternal US-Tichondrius
1025 14 Nov 2011 02:25 24.53M 168838.7 Nightwatchers EU-Outland
1026 22 Mar 2012 02:25 24.55M 168927.2 Big Deal US-Lothar
1027 26 Mar 2012 02:25 24.62M 169364.3 Merry Graverobbers EU-Stormreaver
1028 22 Jan 2012 02:25 24.17M 166200.6 Audacity EU-Twisting Nether
1029 19 Jun 2012 02:25 24.09M 165252.5 Daishan EU-Saurfang
1030 14 Jul 2012 02:25 24.14M 165647.5 Warriors of honour EU-Arygos
1031 13 Oct 2011 02:25 24.17M 165719.8 Alienation EU-Zenedar
1032 27 Aug 2011 02:25 24.17M 165706.5 Raiding Rainbows US-Illidan
1033 23 Aug 2012 02:25 24.80M 169996.0 Core EU-Gorgonnash
1034 25 Dec 2011 02:26 23.50M 160931.1 Undivided EU-Свежеватель Душ
1035 24 Aug 2012 02:26 24.62M 168576.8 Wizzlepop logs US-Sargeras
1036 02 Aug 2012 02:26 25.04M 171374.3 RR Logs US-Illidan
1037 04 Aug 2012 02:26 24.28M 166131.0 Timantti Täydellisyyttä US-Blackrock
1038 16 Aug 2012 02:26 24.09M 164752.2 Intolerance US-Barthilas
1039 12 Mar 2012 02:26 24.99M 170901.7 Валеры_vs_Боссы EU-Азурегос
1040 30 Nov 2011 02:26 24.11M 164795.4 Gag Reflex US-Dark Iron
1041 23 Apr 2012 02:26 24.39M 166692.0 Refridgeraiders US-Zangarmarsh
1042 26 Mar 2012 02:26 24.23M 165580.7 Ashes US-Kil'jaeden
1043 14 Nov 2011 02:26 24.08M 164533.8 Plague US-Daggerspine
1044 29 Jan 2012 02:26 24.13M 164734.0 Letatankpull US-Illidan
1045 24 Jul 2012 02:26 24.20M 165194.5 Croisés de Lordaeron EU-Garona
1046 15 Aug 2012 02:26 24.38M 166349.9 Apotheosis US-Gnomeregan
1047 26 Feb 2012 02:26 23.76M 162145.3 Last Word US-Ner'zhul
1048 08 Aug 2012 02:26 24.09M 164386.2 Persistence EU-Eonar
1049 15 Mar 2012 02:26 24.17M 164898.1 Confession EU-Alonsus
1050 03 Jun 2012 02:26 24.10M 164420.3 Rage Quit EU-Kilrogg
1051 29 Jan 2012 02:26 24.13M 164594.4 Archy US-Illidan
1052 28 Sep 2011 02:26 24.34M 165981.3 Dragon Slayers US-Jubei'Thos
1053 05 Feb 2012 02:26 24.55M 167336.5 Эволюция EU-Ясеневый лес
1054 26 Jul 2012 02:26 24.47M 166789.7 Атомная Романтика EU-Борейская тундра
1055 15 Jan 2012 02:26 24.13M 164440.4 Pantheon EU-Bloodhoof
1056 28 Jul 2012 02:26 24.10M 164227.9 SEoR logs EU-Drak'thul
1057 17 Aug 2012 02:26 23.80M 162066.6 Ракал Рекордс EU-Гордунни
1058 12 Aug 2012 02:26 24.24M 165045.0 The Last Try EU-Throk'Feroth
1059 05 Apr 2012 02:26 24.09M 164059.8 CRY MOAR US-Blackhand
1060 04 Dec 2011 02:26 24.28M 165270.8 LO(C3) US-Gurubashi
1061 17 Jul 2012 02:26 24.50M 166715.1 Devah's Logs US-Illidan
1062 25 Jul 2012 02:26 24.14M 164191.2 Logs US-Proudmoore
1063 15 Jul 2012 02:27 23.80M 161914.0 Nonames' random logs US-Shadowmoon
1064 10 Feb 2012 02:27 24.28M 165130.2 Challenge Accepted [H] US-Quel'dorei
1065 12 Jul 2012 02:27 24.10M 163901.3 Hello Kitty EU-Thrall
1066 23 Feb 2012 02:27 24.77M 168427.5 Pääesikunta EU-Bloodfeather
1067 21 Mar 2012 02:27 24.53M 166717.0 aequinox EU-Arygos
1068 19 Aug 2012 02:27 24.10M 163670.8 CutTheBlueWire US-Area 52
1069 02 Jul 2012 02:27 24.11M 163751.1 NL EU-Blackhand
1070 06 May 2012 02:27 24.32M 165177.3 End of Days EU-Auchindoun
1071 03 Aug 2012 02:27 24.97M 169562.6 Flave EU-Blackmoore
1072 07 Jun 2012 02:27 24.48M 166189.7 Infinite EU-Tarren Mill
1073 22 Mar 2012 02:27 24.27M 164781.9 Hyperion US-Draenor
1074 05 Jul 2012 02:27 24.51M 166368.1 Neko-chan EU-Азурегос
1075 09 Oct 2011 02:27 24.22M 164422.1 organised confusion EU-Anetheron
1076 13 Jul 2012 02:27 23.72M 160938.1 Mint US-Illidan
1077 15 Feb 2012 02:27 24.06M 163241.5 Challenge Accepted [H] US-Quel'dorei
1078 26 Dec 2011 02:27 24.92M 168999.7 Allerias XS EU-Alleria
1079 15 Apr 2012 02:27 24.23M 164316.7 Synaisthesis EU-Ревущий фьорд
1080 23 Aug 2012 02:27 24.10M 163422.4 With Honor EU-Jaedenar
1081 02 Jan 2012 02:27 24.12M 163488.6 PowerHouse EU-Neptulon
1082 24 Aug 2012 02:27 24.40M 165376.9 Mojo's logs US-Zul'jin
1083 09 Jan 2012 02:27 24.20M 163954.3 Modulus US-Jubei'Thos
1084 20 Jun 2012 02:27 24.47M 165666.7 Имя говорит само за себя EU-Гордунни
1085 16 Feb 2012 02:27 24.01M 162568.2 Auspicious US-Bleeding Hollow
1086 18 Jun 2012 02:27 24.25M 164132.0 Fringe EU-Ревущий фьорд
1087 07 Jul 2012 02:27 24.39M 165061.1 No Comment EU-Chamber of Aspects
1088 13 Jan 2012 02:27 24.35M 164650.6 kwasababu EU-Antonidas
1089 11 Apr 2012 02:28 24.84M 167811.1 Atrocious revenge EU-Frostwolf
1090 24 Nov 2011 02:28 24.16M 163161.8 eHeroes EU-Thunderhorn
1091 24 Jun 2012 02:28 24.37M 164557.4 Morbid's Logs US-Thorium Brotherhood
1092 03 Jun 2012 02:28 24.40M 164758.0 Abyss EU-Kazzak
1093 17 Sep 2011 02:28 24.32M 164202.3 Quantum EU-Twisting Nether
1094 17 Sep 2011 02:28 24.12M 162806.8 H O L L Y W O O D US-Arathor
1095 06 Feb 2012 02:28 24.08M 162476.0 Myst US-Cenarius
1096 10 Apr 2012 02:28 24.39M 164574.0 MoX EU-Al'Akir
1097 18 Jun 2012 02:28 24.12M 162757.4 The Church US-Darkspear
1098 31 Jul 2012 02:28 24.60M 165963.6 Timelost EU-Thrall
1099 08 Aug 2012 02:28 24.06M 162267.4 Logs US-Proudmoore
1100 06 Apr 2012 02:28 24.20M 163224.8 The Wyld Hunt EU-Argent Dawn

Please do not close the page with the ad you want to report.

I've posted a guide on how to report misbehaving ads on the forum. Please follow the instructions and help make the internet a safer place. Thanks for you time.